sensor_id;sensor_type;location;lat;lon;timestamp;temperature;humidity
12948;DHT22;6539;49.476;8.484;2023-03-23T00:04:58;16.00;99.90
12948;DHT22;6539;49.476;8.484;2023-03-23T00:07:28;16.00;99.90
12948;DHT22;6539;49.476;8.484;2023-03-23T00:09:56;16.00;99.90
12948;DHT22;6539;49.476;8.484;2023-03-23T00:12:27;16.20;99.90
12948;DHT22;6539;49.476;8.484;2023-03-23T00:15:00;16.20;99.90
12948;DHT22;6539;49.476;8.484;2023-03-23T00:17:34;16.10;99.90
12948;DHT22;6539;49.476;8.484;2023-03-23T00:20:00;16.10;99.90
12948;DHT22;6539;49.476;8.484;2023-03-23T00:22:33;15.90;99.90
12948;DHT22;6539;49.476;8.484;2023-03-23T00:25:06;15.90;99.90
12948;DHT22;6539;49.476;8.484;2023-03-23T00:27:34;16.00;99.90
12948;DHT22;6539;49.476;8.484;2023-03-23T00:30:03;15.90;99.90
12948;DHT22;6539;49.476;8.484;2023-03-23T00:32:29;16.00;99.90
12948;DHT22;6539;49.476;8.484;2023-03-23T00:34:56;15.90;99.90
12948;DHT22;6539;49.476;8.484;2023-03-23T00:37:25;16.10;99.90
12948;DHT22;6539;49.476;8.484;2023-03-23T00:39:53;15.80;99.90
12948;DHT22;6539;49.476;8.484;2023-03-23T00:42:23;16.00;99.90
12948;DHT22;6539;49.476;8.484;2023-03-23T00:44:53;16.00;99.90
12948;DHT22;6539;49.476;8.484;2023-03-23T00:47:25;16.00;99.90
12948;DHT22;6539;49.476;8.484;2023-03-23T00:49:51;16.00;99.90
12948;DHT22;6539;49.476;8.484;2023-03-23T00:52:19;15.80;99.90
12948;DHT22;6539;49.476;8.484;2023-03-23T00:54:44;16.20;99.90
12948;DHT22;6539;49.476;8.484;2023-03-23T00:57:10;16.00;99.90
12948;DHT22;6539;49.476;8.484;2023-03-23T00:59:36;16.00;99.90
12948;DHT22;6539;49.476;8.484;2023-03-23T01:02:02;16.00;99.90
12948;DHT22;6539;49.476;8.484;2023-03-23T01:04:28;16.10;99.90
12948;DHT22;6539;49.476;8.484;2023-03-23T01:06:57;16.00;99.90
12948;DHT22;6539;49.476;8.484;2023-03-23T01:09:25;15.90;99.90
12948;DHT22;6539;49.476;8.484;2023-03-23T01:11:56;15.90;99.90
12948;DHT22;6539;49.476;8.484;2023-03-23T01:14:22;15.90;99.90
12948;DHT22;6539;49.476;8.484;2023-03-23T01:16:50;15.80;99.90
12948;DHT22;6539;49.476;8.484;2023-03-23T01:19:16;15.80;99.90
12948;DHT22;6539;49.476;8.484;2023-03-23T01:21:43;15.80;99.90
12948;DHT22;6539;49.476;8.484;2023-03-23T01:24:13;15.80;99.90
12948;DHT22;6539;49.476;8.484;2023-03-23T01:26:40;15.70;99.90
12948;DHT22;6539;49.476;8.484;2023-03-23T01:29:08;15.80;99.90
12948;DHT22;6539;49.476;8.484;2023-03-23T01:31:34;16.00;99.90
12948;DHT22;6539;49.476;8.484;2023-03-23T01:34:02;15.80;99.90
12948;DHT22;6539;49.476;8.484;2023-03-23T01:36:31;15.80;99.90
12948;DHT22;6539;49.476;8.484;2023-03-23T01:39:01;15.70;99.90
12948;DHT22;6539;49.476;8.484;2023-03-23T01:41:29;15.70;99.90
12948;DHT22;6539;49.476;8.484;2023-03-23T01:44:05;15.70;99.90
12948;DHT22;6539;49.476;8.484;2023-03-23T01:46:36;15.70;99.90
12948;DHT22;6539;49.476;8.484;2023-03-23T01:49:07;15.70;99.90
12948;DHT22;6539;49.476;8.484;2023-03-23T01:51:43;15.50;99.90
12948;DHT22;6539;49.476;8.484;2023-03-23T01:54:15;15.70;99.90
12948;DHT22;6539;49.476;8.484;2023-03-23T01:56:50;15.60;99.90
12948;DHT22;6539;49.476;8.484;2023-03-23T01:59:30;15.60;99.90
12948;DHT22;6539;49.476;8.484;2023-03-23T02:01:59;15.50;99.90
12948;DHT22;6539;49.476;8.484;2023-03-23T02:04:26;15.60;99.90
12948;DHT22;6539;49.476;8.484;2023-03-23T02:06:56;15.50;99.90
12948;DHT22;6539;49.476;8.484;2023-03-23T02:09:27;15.60;99.90
12948;DHT22;6539;49.476;8.484;2023-03-23T02:11:56;15.30;99.90
12948;DHT22;6539;49.476;8.484;2023-03-23T02:14:24;15.50;99.90
12948;DHT22;6539;49.476;8.484;2023-03-23T02:16:55;15.50;99.90
12948;DHT22;6539;49.476;8.484;2023-03-23T02:23:20;15.60;99.90
12948;DHT22;6539;49.476;8.484;2023-03-23T02:29:19;15.50;99.90
12948;DHT22;6539;49.476;8.484;2023-03-23T02:32:10;15.50;99.90
12948;DHT22;6539;49.476;8.484;2023-03-23T02:34:53;15.50;99.90
12948;DHT22;6539;49.476;8.484;2023-03-23T02:37:29;15.50;99.90
12948;DHT22;6539;49.476;8.484;2023-03-23T02:40:11;15.50;99.90
12948;DHT22;6539;49.476;8.484;2023-03-23T02:42:44;15.50;99.90
12948;DHT22;6539;49.476;8.484;2023-03-23T02:45:16;15.50;99.90
12948;DHT22;6539;49.476;8.484;2023-03-23T02:47:44;15.40;99.90
12948;DHT22;6539;49.476;8.484;2023-03-23T02:50:14;15.40;99.90
12948;DHT22;6539;49.476;8.484;2023-03-23T02:52:43;15.40;99.90
12948;DHT22;6539;49.476;8.484;2023-03-23T02:55:10;15.40;99.90
12948;DHT22;6539;49.476;8.484;2023-03-23T02:57:39;15.50;99.90
12948;DHT22;6539;49.476;8.484;2023-03-23T03:00:14;15.50;99.90
12948;DHT22;6539;49.476;8.484;2023-03-23T03:02:49;15.40;99.90
12948;DHT22;6539;49.476;8.484;2023-03-23T03:13:43;15.30;99.90
12948;DHT22;6539;49.476;8.484;2023-03-23T03:16:20;15.30;99.90
12948;DHT22;6539;49.476;8.484;2023-03-23T03:19:06;15.60;99.90
12948;DHT22;6539;49.476;8.484;2023-03-23T03:21:40;15.40;99.90
12948;DHT22;6539;49.476;8.484;2023-03-23T03:24:10;15.40;99.90
12948;DHT22;6539;49.476;8.484;2023-03-23T03:26:45;15.30;99.90
12948;DHT22;6539;49.476;8.484;2023-03-23T03:29:17;15.40;99.90
12948;DHT22;6539;49.476;8.484;2023-03-23T03:31:46;15.40;99.90
12948;DHT22;6539;49.476;8.484;2023-03-23T03:34:15;15.40;99.90
12948;DHT22;6539;49.476;8.484;2023-03-23T03:36:43;15.50;99.90
12948;DHT22;6539;49.476;8.484;2023-03-23T03:39:14;15.50;99.90
12948;DHT22;6539;49.476;8.484;2023-03-23T03:41:43;15.50;99.90
12948;DHT22;6539;49.476;8.484;2023-03-23T03:44:10;15.50;99.90
12948;DHT22;6539;49.476;8.484;2023-03-23T03:46:38;15.80;99.90
12948;DHT22;6539;49.476;8.484;2023-03-23T03:49:08;15.60;99.90
12948;DHT22;6539;49.476;8.484;2023-03-23T03:51:37;15.70;99.90
12948;DHT22;6539;49.476;8.484;2023-03-23T03:54:03;15.50;99.90
12948;DHT22;6539;49.476;8.484;2023-03-23T03:56:32;15.50;99.90
12948;DHT22;6539;49.476;8.484;2023-03-23T03:59:02;15.50;99.90
12948;DHT22;6539;49.476;8.484;2023-03-23T04:01:31;15.60;99.90
12948;DHT22;6539;49.476;8.484;2023-03-23T04:03:56;15.40;99.90
12948;DHT22;6539;49.476;8.484;2023-03-23T04:06:22;15.60;99.90
12948;DHT22;6539;49.476;8.484;2023-03-23T04:08:50;15.60;99.90
12948;DHT22;6539;49.476;8.484;2023-03-23T04:11:22;15.60;99.90
12948;DHT22;6539;49.476;8.484;2023-03-23T04:13:48;15.40;99.90
12948;DHT22;6539;49.476;8.484;2023-03-23T04:16:14;15.60;99.90
12948;DHT22;6539;49.476;8.484;2023-03-23T04:18:42;15.70;99.90
12948;DHT22;6539;49.476;8.484;2023-03-23T04:21:11;15.70;99.90
12948;DHT22;6539;49.476;8.484;2023-03-23T04:23:38;15.70;99.90
12948;DHT22;6539;49.476;8.484;2023-03-23T04:26:04;15.70;99.90
12948;DHT22;6539;49.476;8.484;2023-03-23T04:28:30;15.70;99.90
12948;DHT22;6539;49.476;8.484;2023-03-23T04:31:01;15.70;99.90
12948;DHT22;6539;49.476;8.484;2023-03-23T04:33:29;15.70;99.90
12948;DHT22;6539;49.476;8.484;2023-03-23T04:36:02;15.90;99.90
12948;DHT22;6539;49.476;8.484;2023-03-23T04:38:28;15.70;99.90
12948;DHT22;6539;49.476;8.484;2023-03-23T04:41:00;15.70;99.90
12948;DHT22;6539;49.476;8.484;2023-03-23T04:45:56;15.70;99.90
12948;DHT22;6539;49.476;8.484;2023-03-23T04:48:30;15.50;99.90
12948;DHT22;6539;49.476;8.484;2023-03-23T04:50:58;15.20;99.90
12948;DHT22;6539;49.476;8.484;2023-03-23T04:53:28;15.50;99.90
12948;DHT22;6539;49.476;8.484;2023-03-23T04:55:55;15.50;99.90
12948;DHT22;6539;49.476;8.484;2023-03-23T04:58:21;15.50;99.90
12948;DHT22;6539;49.476;8.484;2023-03-23T05:00:48;15.40;99.90
12948;DHT22;6539;49.476;8.484;2023-03-23T05:03:19;15.50;99.90
12948;DHT22;6539;49.476;8.484;2023-03-23T05:05:46;15.60;99.90
12948;DHT22;6539;49.476;8.484;2023-03-23T05:08:20;15.40;99.90
12948;DHT22;6539;49.476;8.484;2023-03-23T05:10:54;15.10;99.90
12948;DHT22;6539;49.476;8.484;2023-03-23T05:13:22;15.40;99.90
12948;DHT22;6539;49.476;8.484;2023-03-23T05:15:48;15.20;99.90
12948;DHT22;6539;49.476;8.484;2023-03-23T05:18:17;15.30;99.90
12948;DHT22;6539;49.476;8.484;2023-03-23T05:20:45;15.40;99.90
12948;DHT22;6539;49.476;8.484;2023-03-23T05:23:12;15.10;99.90
12948;DHT22;6539;49.476;8.484;2023-03-23T05:25:41;15.40;99.90
12948;DHT22;6539;49.476;8.484;2023-03-23T05:28:08;15.20;99.90
12948;DHT22;6539;49.476;8.484;2023-03-23T05:30:36;15.60;99.90
12948;DHT22;6539;49.476;8.484;2023-03-23T05:33:06;15.30;99.90
12948;DHT22;6539;49.476;8.484;2023-03-23T05:38:00;15.40;99.90
12948;DHT22;6539;49.476;8.484;2023-03-23T05:40:27;15.50;99.90
12948;DHT22;6539;49.476;8.484;2023-03-23T05:42:56;15.40;99.90
12948;DHT22;6539;49.476;8.484;2023-03-23T05:45:24;15.30;99.90
12948;DHT22;6539;49.476;8.484;2023-03-23T05:47:56;15.10;99.90
12948;DHT22;6539;49.476;8.484;2023-03-23T05:50:22;15.30;99.90
12948;DHT22;6539;49.476;8.484;2023-03-23T05:52:48;15.30;99.90
12948;DHT22;6539;49.476;8.484;2023-03-23T05:55:14;15.30;99.90
12948;DHT22;6539;49.476;8.484;2023-03-23T05:57:42;15.30;99.90
12948;DHT22;6539;49.476;8.484;2023-03-23T06:00:12;15.40;99.90
12948;DHT22;6539;49.476;8.484;2023-03-23T06:02:46;15.40;99.90
12948;DHT22;6539;49.476;8.484;2023-03-23T06:05:14;15.20;99.90
12948;DHT22;6539;49.476;8.484;2023-03-23T06:07:41;15.70;99.90
12948;DHT22;6539;49.476;8.484;2023-03-23T06:10:12;15.80;99.90
12948;DHT22;6539;49.476;8.484;2023-03-23T06:12:40;15.80;99.90
12948;DHT22;6539;49.476;8.484;2023-03-23T06:15:07;16.30;99.90
12948;DHT22;6539;49.476;8.484;2023-03-23T06:17:37;16.10;99.90
12948;DHT22;6539;49.476;8.484;2023-03-23T06:20:05;16.00;99.90
12948;DHT22;6539;49.476;8.484;2023-03-23T06:22:39;16.00;99.90
12948;DHT22;6539;49.476;8.484;2023-03-23T06:25:09;15.90;99.90
12948;DHT22;6539;49.476;8.484;2023-03-23T06:27:41;15.60;99.90
12948;DHT22;6539;49.476;8.484;2023-03-23T06:30:07;15.90;99.90
12948;DHT22;6539;49.476;8.484;2023-03-23T06:32:38;15.90;99.90
12948;DHT22;6539;49.476;8.484;2023-03-23T06:35:04;16.00;99.90
12948;DHT22;6539;49.476;8.484;2023-03-23T06:37:31;16.00;99.90
12948;DHT22;6539;49.476;8.484;2023-03-23T06:39:59;15.90;99.90
12948;DHT22;6539;49.476;8.484;2023-03-23T06:42:26;15.90;99.90
12948;DHT22;6539;49.476;8.484;2023-03-23T06:44:52;16.00;99.90
12948;DHT22;6539;49.476;8.484;2023-03-23T06:47:23;15.80;99.90
12948;DHT22;6539;49.476;8.484;2023-03-23T06:49:52;15.60;99.90
12948;DHT22;6539;49.476;8.484;2023-03-23T06:52:20;15.70;99.90
12948;DHT22;6539;49.476;8.484;2023-03-23T06:54:52;15.70;99.90
12948;DHT22;6539;49.476;8.484;2023-03-23T06:59:49;15.70;99.90
12948;DHT22;6539;49.476;8.484;2023-03-23T07:02:18;15.50;99.90
12948;DHT22;6539;49.476;8.484;2023-03-23T07:04:46;15.80;99.90
12948;DHT22;6539;49.476;8.484;2023-03-23T07:07:12;15.80;99.90
12948;DHT22;6539;49.476;8.484;2023-03-23T07:09:39;15.70;99.90
12948;DHT22;6539;49.476;8.484;2023-03-23T07:12:06;15.70;99.90
12948;DHT22;6539;49.476;8.484;2023-03-23T07:14:32;15.80;99.90
12948;DHT22;6539;49.476;8.484;2023-03-23T07:17:03;15.30;99.90
12948;DHT22;6539;49.476;8.484;2023-03-23T07:21:56;15.80;99.90
12948;DHT22;6539;49.476;8.484;2023-03-23T07:24:22;15.40;99.90
12948;DHT22;6539;49.476;8.484;2023-03-23T07:26:51;15.40;99.90
12948;DHT22;6539;49.476;8.484;2023-03-23T07:29:19;15.10;99.90
12948;DHT22;6539;49.476;8.484;2023-03-23T07:31:50;15.80;99.90
12948;DHT22;6539;49.476;8.484;2023-03-23T07:34:17;15.20;99.90
12948;DHT22;6539;49.476;8.484;2023-03-23T07:36:43;15.40;99.90
12948;DHT22;6539;49.476;8.484;2023-03-23T07:39:12;15.20;99.90
12948;DHT22;6539;49.476;8.484;2023-03-23T07:41:38;15.40;99.90
12948;DHT22;6539;49.476;8.484;2023-03-23T07:44:05;15.50;99.90
12948;DHT22;6539;49.476;8.484;2023-03-23T07:46:34;15.40;99.90
12948;DHT22;6539;49.476;8.484;2023-03-23T07:49:01;15.30;99.90
12948;DHT22;6539;49.476;8.484;2023-03-23T07:51:36;15.30;99.90
12948;DHT22;6539;49.476;8.484;2023-03-23T07:54:04;15.20;99.90
12948;DHT22;6539;49.476;8.484;2023-03-23T07:56:33;15.20;99.90
12948;DHT22;6539;49.476;8.484;2023-03-23T07:59:01;15.20;99.90
12948;DHT22;6539;49.476;8.484;2023-03-23T08:01:28;15.30;99.90
12948;DHT22;6539;49.476;8.484;2023-03-23T08:03:54;15.30;99.90
12948;DHT22;6539;49.476;8.484;2023-03-23T08:06:23;15.20;99.90
12948;DHT22;6539;49.476;8.484;2023-03-23T08:08:52;15.20;99.90
12948;DHT22;6539;49.476;8.484;2023-03-23T08:11:19;15.20;99.90
12948;DHT22;6539;49.476;8.484;2023-03-23T08:13:46;15.10;99.90
12948;DHT22;6539;49.476;8.484;2023-03-23T08:16:12;15.20;99.90
12948;DHT22;6539;49.476;8.484;2023-03-23T08:18:39;15.30;99.90
12948;DHT22;6539;49.476;8.484;2023-03-23T08:21:06;15.10;99.90
12948;DHT22;6539;49.476;8.484;2023-03-23T08:23:38;15.30;99.90
12948;DHT22;6539;49.476;8.484;2023-03-23T08:26:05;14.90;99.90
12948;DHT22;6539;49.476;8.484;2023-03-23T08:28:36;15.10;99.90
12948;DHT22;6539;49.476;8.484;2023-03-23T08:31:07;15.10;99.90
12948;DHT22;6539;49.476;8.484;2023-03-23T08:33:37;15.00;99.90
12948;DHT22;6539;49.476;8.484;2023-03-23T08:36:04;15.10;99.90
12948;DHT22;6539;49.476;8.484;2023-03-23T08:38:33;15.20;99.90
12948;DHT22;6539;49.476;8.484;2023-03-23T08:41:02;15.10;99.90
12948;DHT22;6539;49.476;8.484;2023-03-23T08:43:32;15.20;99.90
12948;DHT22;6539;49.476;8.484;2023-03-23T08:46:01;15.10;99.90
12948;DHT22;6539;49.476;8.484;2023-03-23T08:48:32;15.10;99.90
12948;DHT22;6539;49.476;8.484;2023-03-23T08:51:01;15.40;99.90
12948;DHT22;6539;49.476;8.484;2023-03-23T08:53:27;15.00;99.90
12948;DHT22;6539;49.476;8.484;2023-03-23T08:56:05;15.10;99.90
12948;DHT22;6539;49.476;8.484;2023-03-23T08:58:36;15.00;99.90
12948;DHT22;6539;49.476;8.484;2023-03-23T09:01:06;14.80;99.90
12948;DHT22;6539;49.476;8.484;2023-03-23T09:03:33;15.10;99.90
12948;DHT22;6539;49.476;8.484;2023-03-23T09:06:06;15.10;99.90
12948;DHT22;6539;49.476;8.484;2023-03-23T09:08:34;15.20;99.90
12948;DHT22;6539;49.476;8.484;2023-03-23T09:11:06;15.00;99.90
12948;DHT22;6539;49.476;8.484;2023-03-23T09:13:37;14.90;99.90
12948;DHT22;6539;49.476;8.484;2023-03-23T09:16:08;15.20;99.90
12948;DHT22;6539;49.476;8.484;2023-03-23T09:18:34;15.10;99.90
12948;DHT22;6539;49.476;8.484;2023-03-23T09:21:04;15.30;99.90
12948;DHT22;6539;49.476;8.484;2023-03-23T09:23:33;15.50;99.90
12948;DHT22;6539;49.476;8.484;2023-03-23T09:26:00;15.50;99.90
12948;DHT22;6539;49.476;8.484;2023-03-23T09:28:28;15.60;99.90
12948;DHT22;6539;49.476;8.484;2023-03-23T09:30:57;15.50;99.90
12948;DHT22;6539;49.476;8.484;2023-03-23T09:33:26;15.80;99.90
12948;DHT22;6539;49.476;8.484;2023-03-23T09:36:01;15.80;99.90
12948;DHT22;6539;49.476;8.484;2023-03-23T09:38:30;16.00;99.90
12948;DHT22;6539;49.476;8.484;2023-03-23T09:44:17;16.00;99.90
12948;DHT22;6539;49.476;8.484;2023-03-23T09:51:13;15.90;99.90
12948;DHT22;6539;49.476;8.484;2023-03-23T09:53:50;15.90;99.90
12948;DHT22;6539;49.476;8.484;2023-03-23T09:56:22;15.80;99.90
12948;DHT22;6539;49.476;8.484;2023-03-23T09:58:58;15.80;99.90
12948;DHT22;6539;49.476;8.484;2023-03-23T10:01:33;16.00;99.90
12948;DHT22;6539;49.476;8.484;2023-03-23T10:06:47;15.90;99.90
12948;DHT22;6539;49.476;8.484;2023-03-23T10:09:16;15.80;99.90
12948;DHT22;6539;49.476;8.484;2023-03-23T10:15:14;15.80;99.90
12948;DHT22;6539;49.476;8.484;2023-03-23T10:25:52;15.60;99.90
12948;DHT22;6539;49.476;8.484;2023-03-23T10:28:44;15.60;99.90
12948;DHT22;6539;49.476;8.484;2023-03-23T10:31:17;15.70;99.90
12948;DHT22;6539;49.476;8.484;2023-03-23T10:34:11;15.70;99.90
12948;DHT22;6539;49.476;8.484;2023-03-23T10:39:52;15.80;99.90
12948;DHT22;6539;49.476;8.484;2023-03-23T10:42:28;15.70;99.90
12948;DHT22;6539;49.476;8.484;2023-03-23T10:45:16;16.00;99.90
12948;DHT22;6539;49.476;8.484;2023-03-23T10:47:48;16.20;99.90
12948;DHT22;6539;49.476;8.484;2023-03-23T10:50:27;16.20;99.90
12948;DHT22;6539;49.476;8.484;2023-03-23T10:52:58;16.30;99.90
12948;DHT22;6539;49.476;8.484;2023-03-23T10:55:40;16.30;99.90
12948;DHT22;6539;49.476;8.484;2023-03-23T10:58:11;16.40;99.90
12948;DHT22;6539;49.476;8.484;2023-03-23T11:00:47;16.50;99.90
12948;DHT22;6539;49.476;8.484;2023-03-23T11:08:26;16.40;99.90
12948;DHT22;6539;49.476;8.484;2023-03-23T11:11:15;16.20;99.90
12948;DHT22;6539;49.476;8.484;2023-03-23T11:13:48;16.20;99.90
12948;DHT22;6539;49.476;8.484;2023-03-23T11:16:28;16.20;99.90
12948;DHT22;6539;49.476;8.484;2023-03-23T11:18:59;15.70;99.90
12948;DHT22;6539;49.476;8.484;2023-03-23T11:21:38;16.30;99.90
12948;DHT22;6539;49.476;8.484;2023-03-23T11:24:05;16.10;99.90
12948;DHT22;6539;49.476;8.484;2023-03-23T11:26:36;16.00;99.90
12948;DHT22;6539;49.476;8.484;2023-03-23T11:29:18;15.90;99.90
12948;DHT22;6539;49.476;8.484;2023-03-23T11:31:47;15.90;99.90
12948;DHT22;6539;49.476;8.484;2023-03-23T11:34:22;15.90;99.90
12948;DHT22;6539;49.476;8.484;2023-03-23T11:36:50;15.90;99.90
12948;DHT22;6539;49.476;8.484;2023-03-23T11:41:57;15.90;99.90
12948;DHT22;6539;49.476;8.484;2023-03-23T11:44:41;15.80;99.90
12948;DHT22;6539;49.476;8.484;2023-03-23T11:50:10;15.80;99.90
12948;DHT22;6539;49.476;8.484;2023-03-23T11:52:57;15.80;99.90
12948;DHT22;6539;49.476;8.484;2023-03-23T11:55:49;16.00;99.90
12948;DHT22;6539;49.476;8.484;2023-03-23T11:58:24;16.10;99.90
12948;DHT22;6539;49.476;8.484;2023-03-23T12:01:51;15.80;99.90
12948;DHT22;6539;49.476;8.484;2023-03-23T12:18:36;15.80;99.90
12948;DHT22;6539;49.476;8.484;2023-03-23T12:24:22;16.00;99.90
12948;DHT22;6539;49.476;8.484;2023-03-23T12:36:11;16.10;99.90
12948;DHT22;6539;49.476;8.484;2023-03-23T12:41:17;16.20;99.90
12948;DHT22;6539;49.476;8.484;2023-03-23T12:44:06;16.20;99.90
12948;DHT22;6539;49.476;8.484;2023-03-23T12:46:56;16.20;99.90
12948;DHT22;6539;49.476;8.484;2023-03-23T12:49:45;16.20;99.90
12948;DHT22;6539;49.476;8.484;2023-03-23T12:58:05;16.20;99.90
12948;DHT22;6539;49.476;8.484;2023-03-23T13:00:59;16.20;99.90
12948;DHT22;6539;49.476;8.484;2023-03-23T13:06:18;16.20;99.90
12948;DHT22;6539;49.476;8.484;2023-03-23T13:09:03;16.20;99.90
12948;DHT22;6539;49.476;8.484;2023-03-23T13:11:39;16.20;99.90
12948;DHT22;6539;49.476;8.484;2023-03-23T13:23:31;16.00;99.90
12948;DHT22;6539;49.476;8.484;2023-03-23T13:26:20;16.10;99.90
12948;DHT22;6539;49.476;8.484;2023-03-23T13:28:55;16.10;99.90
12948;DHT22;6539;49.476;8.484;2023-03-23T13:31:26;16.00;99.90
12948;DHT22;6539;49.476;8.484;2023-03-23T13:34:25;16.00;99.90
12948;DHT22;6539;49.476;8.484;2023-03-23T13:37:01;16.10;99.90
12948;DHT22;6539;49.476;8.484;2023-03-23T13:39:33;16.20;99.90
12948;DHT22;6539;49.476;8.484;2023-03-23T13:44:54;16.20;99.90
12948;DHT22;6539;49.476;8.484;2023-03-23T13:47:40;16.20;99.90
12948;DHT22;6539;49.476;8.484;2023-03-23T14:03:05;16.00;99.90
12948;DHT22;6539;49.476;8.484;2023-03-23T14:11:14;16.00;99.90
12948;DHT22;6539;49.476;8.484;2023-03-23T14:16:40;16.10;99.90
12948;DHT22;6539;49.476;8.484;2023-03-23T14:21:56;16.10;99.90
12948;DHT22;6539;49.476;8.484;2023-03-23T14:26:54;16.10;99.90
12948;DHT22;6539;49.476;8.484;2023-03-23T14:29:37;16.00;99.90
12948;DHT22;6539;49.476;8.484;2023-03-23T14:32:06;16.00;99.90
12948;DHT22;6539;49.476;8.484;2023-03-23T14:34:38;15.90;99.90
12948;DHT22;6539;49.476;8.484;2023-03-23T14:37:13;16.30;99.90
12948;DHT22;6539;49.476;8.484;2023-03-23T14:39:47;15.90;99.90
12948;DHT22;6539;49.476;8.484;2023-03-23T14:42:18;16.10;99.90
12948;DHT22;6539;49.476;8.484;2023-03-23T14:44:49;16.10;99.90
12948;DHT22;6539;49.476;8.484;2023-03-23T14:47:31;16.40;99.90
12948;DHT22;6539;49.476;8.484;2023-03-23T14:50:03;16.10;99.90
12948;DHT22;6539;49.476;8.484;2023-03-23T14:52:36;16.00;99.90
12948;DHT22;6539;49.476;8.484;2023-03-23T14:55:18;16.00;99.90
12948;DHT22;6539;49.476;8.484;2023-03-23T14:57:46;16.00;99.90
12948;DHT22;6539;49.476;8.484;2023-03-23T15:00:27;16.00;99.90
12948;DHT22;6539;49.476;8.484;2023-03-23T15:03:00;16.00;99.90
12948;DHT22;6539;49.476;8.484;2023-03-23T15:05:38;16.00;99.90
12948;DHT22;6539;49.476;8.484;2023-03-23T15:08:18;16.10;99.90
12948;DHT22;6539;49.476;8.484;2023-03-23T15:13:55;15.90;99.90
12948;DHT22;6539;49.476;8.484;2023-03-23T15:16:28;15.80;99.90
12948;DHT22;6539;49.476;8.484;2023-03-23T15:19:11;16.10;99.90
12948;DHT22;6539;49.476;8.484;2023-03-23T15:21:52;16.10;99.90
12948;DHT22;6539;49.476;8.484;2023-03-23T15:24:40;16.10;99.90
12948;DHT22;6539;49.476;8.484;2023-03-23T15:32:28;16.00;99.90
12948;DHT22;6539;49.476;8.484;2023-03-23T15:34:57;15.90;99.90
12948;DHT22;6539;49.476;8.484;2023-03-23T15:37:32;15.90;99.90
12948;DHT22;6539;49.476;8.484;2023-03-23T15:40:05;16.00;99.90
12948;DHT22;6539;49.476;8.484;2023-03-23T15:42:33;16.00;99.90
12948;DHT22;6539;49.476;8.484;2023-03-23T15:52:55;16.20;99.90
12948;DHT22;6539;49.476;8.484;2023-03-23T15:55:22;16.20;99.90
12948;DHT22;6539;49.476;8.484;2023-03-23T15:58:12;16.30;99.90
12948;DHT22;6539;49.476;8.484;2023-03-23T16:00:40;16.30;99.90
12948;DHT22;6539;49.476;8.484;2023-03-23T16:03:12;16.00;99.90
12948;DHT22;6539;49.476;8.484;2023-03-23T16:05:48;16.20;99.90
12948;DHT22;6539;49.476;8.484;2023-03-23T16:08:14;16.20;99.90
12948;DHT22;6539;49.476;8.484;2023-03-23T16:10:41;16.20;99.90
12948;DHT22;6539;49.476;8.484;2023-03-23T16:13:06;16.20;99.90
12948;DHT22;6539;49.476;8.484;2023-03-23T16:15:37;16.40;99.90
12948;DHT22;6539;49.476;8.484;2023-03-23T16:18:03;16.30;99.90
12948;DHT22;6539;49.476;8.484;2023-03-23T16:20:30;16.10;99.90
12948;DHT22;6539;49.476;8.484;2023-03-23T16:22:57;16.10;99.90
12948;DHT22;6539;49.476;8.484;2023-03-23T16:25:24;16.10;99.90
12948;DHT22;6539;49.476;8.484;2023-03-23T16:27:50;15.90;99.90
12948;DHT22;6539;49.476;8.484;2023-03-23T16:30:21;15.80;99.90
12948;DHT22;6539;49.476;8.484;2023-03-23T16:32:53;15.90;99.90
12948;DHT22;6539;49.476;8.484;2023-03-23T16:35:20;16.00;99.90
12948;DHT22;6539;49.476;8.484;2023-03-23T16:37:54;15.90;99.90
12948;DHT22;6539;49.476;8.484;2023-03-23T16:40:24;16.10;99.90
12948;DHT22;6539;49.476;8.484;2023-03-23T16:42:50;16.20;99.90
12948;DHT22;6539;49.476;8.484;2023-03-23T16:45:18;16.00;99.90
12948;DHT22;6539;49.476;8.484;2023-03-23T16:47:44;16.10;99.90
12948;DHT22;6539;49.476;8.484;2023-03-23T16:50:17;16.00;99.90
12948;DHT22;6539;49.476;8.484;2023-03-23T16:52:44;15.80;99.90
12948;DHT22;6539;49.476;8.484;2023-03-23T16:55:15;15.80;99.90
12948;DHT22;6539;49.476;8.484;2023-03-23T16:57:43;16.00;99.90
12948;DHT22;6539;49.476;8.484;2023-03-23T17:00:16;16.20;99.90
12948;DHT22;6539;49.476;8.484;2023-03-23T17:02:48;16.20;99.90
12948;DHT22;6539;49.476;8.484;2023-03-23T17:05:24;16.00;99.90
12948;DHT22;6539;49.476;8.484;2023-03-23T17:07:57;15.70;99.90
12948;DHT22;6539;49.476;8.484;2023-03-23T17:10:25;15.90;99.90
12948;DHT22;6539;49.476;8.484;2023-03-23T17:12:54;16.00;99.90
12948;DHT22;6539;49.476;8.484;2023-03-23T17:15:20;15.80;99.90
12948;DHT22;6539;49.476;8.484;2023-03-23T17:17:52;16.00;99.90
12948;DHT22;6539;49.476;8.484;2023-03-23T17:20:19;15.90;99.90
12948;DHT22;6539;49.476;8.484;2023-03-23T17:22:46;16.00;99.90
12948;DHT22;6539;49.476;8.484;2023-03-23T17:25:12;16.00;99.90
12948;DHT22;6539;49.476;8.484;2023-03-23T17:27:43;15.90;99.90
12948;DHT22;6539;49.476;8.484;2023-03-23T17:30:09;16.20;99.90
12948;DHT22;6539;49.476;8.484;2023-03-23T17:32:38;15.90;99.90
12948;DHT22;6539;49.476;8.484;2023-03-23T17:35:08;15.90;99.90
12948;DHT22;6539;49.476;8.484;2023-03-23T17:37:37;16.00;99.90
12948;DHT22;6539;49.476;8.484;2023-03-23T17:40:04;16.10;99.90
12948;DHT22;6539;49.476;8.484;2023-03-23T17:42:36;16.00;99.90
12948;DHT22;6539;49.476;8.484;2023-03-23T17:45:06;16.10;99.90
12948;DHT22;6539;49.476;8.484;2023-03-23T17:47:38;15.90;99.90
12948;DHT22;6539;49.476;8.484;2023-03-23T17:50:07;16.00;99.90
12948;DHT22;6539;49.476;8.484;2023-03-23T17:52:33;16.00;99.90
12948;DHT22;6539;49.476;8.484;2023-03-23T17:55:01;15.90;99.90
12948;DHT22;6539;49.476;8.484;2023-03-23T17:57:27;15.90;99.90
12948;DHT22;6539;49.476;8.484;2023-03-23T17:59:53;15.90;99.90
12948;DHT22;6539;49.476;8.484;2023-03-23T18:02:19;15.90;99.90
12948;DHT22;6539;49.476;8.484;2023-03-23T18:04:45;15.80;99.90
12948;DHT22;6539;49.476;8.484;2023-03-23T18:07:13;15.90;99.90
12948;DHT22;6539;49.476;8.484;2023-03-23T18:09:42;15.70;99.90
12948;DHT22;6539;49.476;8.484;2023-03-23T18:12:15;15.90;99.90
12948;DHT22;6539;49.476;8.484;2023-03-23T18:14:43;15.90;99.90
12948;DHT22;6539;49.476;8.484;2023-03-23T18:17:12;16.10;99.90
12948;DHT22;6539;49.476;8.484;2023-03-23T18:19:38;16.00;99.90
12948;DHT22;6539;49.476;8.484;2023-03-23T18:22:04;15.90;99.90
12948;DHT22;6539;49.476;8.484;2023-03-23T18:24:30;15.90;99.90
12948;DHT22;6539;49.476;8.484;2023-03-23T18:26:56;15.90;99.90
12948;DHT22;6539;49.476;8.484;2023-03-23T18:29:22;15.90;99.90
12948;DHT22;6539;49.476;8.484;2023-03-23T18:31:47;15.70;99.90
12948;DHT22;6539;49.476;8.484;2023-03-23T18:34:13;16.20;99.90
12948;DHT22;6539;49.476;8.484;2023-03-23T18:36:41;16.00;99.90
12948;DHT22;6539;49.476;8.484;2023-03-23T18:39:09;15.90;99.90
12948;DHT22;6539;49.476;8.484;2023-03-23T18:41:37;16.00;99.90
12948;DHT22;6539;49.476;8.484;2023-03-23T18:44:02;15.90;99.90
12948;DHT22;6539;49.476;8.484;2023-03-23T18:46:28;15.90;99.90